createdAt,value
2022-09-14T00:00:39.811Z,82.70
2022-09-14T00:01:39.823Z,82.70
2022-09-14T00:02:39.886Z,82.50
2022-09-14T00:03:39.832Z,83.01
2022-09-14T00:04:39.743Z,83.92
2022-09-14T00:05:39.736Z,86.15
2022-09-14T00:06:39.719Z,86.91
2022-09-14T00:07:39.697Z,87.12
2022-09-14T00:08:39.699Z,87.02
2022-09-14T00:09:39.672Z,87.46
2022-09-14T00:10:39.671Z,87.02
2022-09-14T00:11:39.645Z,85.80
2022-09-14T00:12:39.634Z,85.70
2022-09-14T00:13:39.697Z,87.02
2022-09-14T00:14:39.609Z,86.41
2022-09-14T00:15:39.605Z,86.31
2022-09-14T00:16:39.660Z,88.23
2022-09-14T00:17:39.565Z,88.64
2022-09-14T00:18:39.565Z,89.54
2022-09-14T00:19:39.543Z,89.75
2022-09-14T00:20:39.544Z,89.95
2022-09-14T00:21:39.500Z,89.54
2022-09-14T00:22:39.501Z,88.53
2022-09-14T00:23:39.481Z,87.42
2022-09-14T00:24:39.472Z,86.31
2022-09-14T00:25:39.470Z,85.90
2022-09-14T00:26:39.453Z,85.90
2022-09-14T00:27:39.442Z,85.80
2022-09-14T00:28:39.521Z,85.70
2022-09-14T00:29:39.421Z,86.31
2022-09-14T00:30:39.429Z,88.29
2022-09-14T00:31:39.477Z,90.31
2022-09-14T00:32:39.371Z,91.02
2022-09-14T00:33:39.417Z,91.32
2022-09-14T00:34:39.340Z,91.32
2022-09-14T00:35:39.340Z,91.42
2022-09-14T00:36:39.326Z,90.92
2022-09-14T00:37:39.305Z,90.41
2022-09-14T00:38:39.287Z,89.70
2022-09-14T00:39:39.271Z,89.04
2022-09-14T00:40:39.283Z,88.23
2022-09-14T00:41:39.251Z,87.79
2022-09-14T00:42:39.238Z,88.70
2022-09-14T00:43:39.253Z,89.00
2022-09-14T00:44:39.210Z,88.70
2022-09-14T00:45:39.247Z,88.09
2022-09-14T00:46:39.181Z,87.28
2022-09-14T00:47:39.164Z,86.87
2022-09-14T00:48:39.149Z,86.77
2022-09-14T00:49:39.149Z,86.37
2022-09-14T00:50:39.136Z,85.56
2022-09-14T00:51:39.110Z,85.56
2022-09-14T00:52:39.102Z,84.95
2022-09-14T00:53:39.090Z,84.65
2022-09-14T00:54:39.090Z,84.85
2022-09-14T00:55:39.064Z,84.85
2022-09-14T00:56:39.049Z,84.65
2022-09-14T00:57:39.032Z,84.25
2022-09-14T00:58:39.040Z,84.14
2022-09-14T00:59:39.020Z,84.14
2022-09-14T01:00:39.060Z,84.14
2022-09-14T01:01:39.040Z,84.25
2022-09-14T01:02:39.061Z,84.75
2022-09-14T01:03:38.949Z,86.07
2022-09-14T01:04:38.957Z,86.07
2022-09-14T01:05:38.925Z,86.07
2022-09-14T01:06:38.916Z,86.77
2022-09-14T01:07:38.906Z,87.48
2022-09-14T01:08:38.936Z,87.08
2022-09-14T01:09:38.887Z,87.13
2022-09-14T01:10:38.868Z,87.84
2022-09-14T01:11:38.852Z,87.84
2022-09-14T01:12:38.845Z,88.75
2022-09-14T01:13:38.823Z,87.95
2022-09-14T01:14:38.830Z,86.98
2022-09-14T01:15:38.789Z,86.47
2022-09-14T01:16:38.855Z,85.96
2022-09-14T01:17:38.771Z,85.25
2022-09-14T01:18:38.778Z,84.95
2022-09-14T01:19:38.760Z,84.95
2022-09-14T01:20:38.737Z,85.05
2022-09-14T01:21:38.709Z,84.95
2022-09-14T01:22:38.707Z,85.05
2022-09-14T01:23:38.772Z,84.85
2022-09-14T01:24:38.688Z,84.65
2022-09-14T01:25:38.658Z,85.52
2022-09-14T01:26:38.653Z,85.31
2022-09-14T01:27:38.640Z,85.11
2022-09-14T01:28:38.625Z,84.61
2022-09-14T01:29:38.620Z,83.90
2022-09-14T01:30:38.599Z,83.70
2022-09-14T01:31:38.667Z,83.54
2022-09-14T01:32:38.568Z,83.23
2022-09-14T01:33:38.550Z,83.70
2022-09-14T01:34:38.558Z,83.50
2022-09-14T01:35:38.518Z,82.79
2022-09-14T01:36:38.519Z,82.53
2022-09-14T01:37:38.505Z,82.39
2022-09-14T01:38:38.489Z,82.39
2022-09-14T01:39:38.500Z,82.49
2022-09-14T01:40:38.460Z,83.19
2022-09-14T01:41:38.455Z,83.40
2022-09-14T01:42:38.440Z,83.50
2022-09-14T01:43:38.419Z,83.60
2022-09-14T01:44:38.421Z,83.29
2022-09-14T01:45:38.525Z,82.79
2022-09-14T01:46:38.382Z,82.59
2022-09-14T01:47:38.359Z,82.28
2022-09-14T01:48:38.365Z,82.39
2022-09-14T01:49:38.368Z,82.49
2022-09-14T01:50:38.331Z,83.09
2022-09-14T01:51:38.312Z,83.09
2022-09-14T01:52:38.307Z,83.09
2022-09-14T01:53:38.291Z,83.29
2022-09-14T01:54:38.288Z,83.40
2022-09-14T01:55:38.263Z,83.40
2022-09-14T01:56:38.249Z,83.29
2022-09-14T01:57:38.231Z,83.50
2022-09-14T01:58:38.227Z,83.19
2022-09-14T01:59:38.221Z,83.40
2022-09-14T02:00:38.263Z,83.29
2022-09-14T02:01:38.276Z,83.70
2022-09-14T02:02:38.206Z,84.11
2022-09-14T02:03:38.160Z,83.40
2022-09-14T02:04:38.158Z,82.99
2022-09-14T02:05:38.128Z,82.79
2022-09-14T02:06:38.117Z,82.49
2022-09-14T02:07:38.098Z,82.39
2022-09-14T02:08:38.090Z,82.39
2022-09-14T02:09:38.086Z,82.28
2022-09-14T02:10:38.070Z,82.49
2022-09-14T02:11:38.043Z,82.59
2022-09-14T02:12:38.036Z,82.89
2022-09-14T02:13:38.021Z,82.89
2022-09-14T02:14:38.023Z,83.60
2022-09-14T02:15:37.988Z,84.31
2022-09-14T02:16:38.049Z,87.13
2022-09-14T02:17:37.967Z,89.46
2022-09-14T02:18:37.957Z,90.07
2022-09-14T02:19:37.951Z,90.98
2022-09-14T02:20:37.927Z,91.08
2022-09-14T02:21:37.908Z,90.98
2022-09-14T02:22:37.907Z,90.37
2022-09-14T02:23:37.879Z,90.07
2022-09-14T02:24:37.890Z,90.37
2022-09-14T02:25:37.859Z,90.78
2022-09-14T02:26:37.842Z,90.27
2022-09-14T02:27:37.827Z,89.97
2022-09-14T02:28:37.820Z,89.26
2022-09-14T02:29:37.819Z,89.46
2022-09-14T02:30:37.798Z,88.96
2022-09-14T02:31:37.848Z,88.15
2022-09-14T02:32:37.766Z,87.74
2022-09-14T02:33:37.748Z,87.13
2022-09-14T02:34:37.751Z,86.93
2022-09-14T02:35:37.720Z,87.13
2022-09-14T02:36:37.713Z,87.13
2022-09-14T02:37:37.702Z,86.93
2022-09-14T02:38:37.690Z,88.25
2022-09-14T02:39:37.680Z,89.46
2022-09-14T02:40:37.662Z,90.23
2022-09-14T02:41:37.641Z,89.83
2022-09-14T02:42:37.639Z,89.52
2022-09-14T02:43:37.616Z,89.92
2022-09-14T02:44:37.618Z,90.63
2022-09-14T02:45:37.589Z,90.03
2022-09-14T02:46:37.638Z,89.16
2022-09-14T02:47:37.573Z,88.55
2022-09-14T02:48:37.571Z,87.95
2022-09-14T02:49:37.551Z,87.95
2022-09-14T02:50:37.531Z,87.13
2022-09-14T02:51:37.514Z,86.53
2022-09-14T02:52:37.501Z,86.02
2022-09-14T02:53:37.505Z,85.82
2022-09-14T02:54:37.475Z,85.62
2022-09-14T02:55:37.462Z,85.42
2022-09-14T02:56:37.444Z,84.81
2022-09-14T02:57:37.433Z,84.81
2022-09-14T02:58:37.453Z,84.71
2022-09-14T02:59:37.412Z,84.71
2022-09-14T03:00:37.462Z,84.71
2022-09-14T03:01:37.417Z,84.41
2022-09-14T03:02:37.381Z,84.06
2022-09-14T03:03:37.362Z,83.80
2022-09-14T03:04:37.342Z,83.15
2022-09-14T03:05:37.328Z,82.85
2022-09-14T03:06:37.320Z,82.69
2022-09-14T03:07:37.291Z,82.65
2022-09-14T03:08:37.316Z,82.85
2022-09-14T03:09:37.273Z,82.85
2022-09-14T03:10:37.266Z,82.65
2022-09-14T03:11:37.241Z,82.55
2022-09-14T03:12:37.234Z,83.05
2022-09-14T03:13:37.230Z,82.85
2022-09-14T03:14:37.212Z,82.75
2022-09-14T03:15:37.192Z,84.47
2022-09-14T03:16:37.237Z,85.78
2022-09-14T03:17:37.171Z,87.81
2022-09-14T03:18:37.163Z,89.22
2022-09-14T03:19:37.139Z,90.23
2022-09-14T03:20:37.122Z,89.42
2022-09-14T03:21:37.114Z,87.30
2022-09-14T03:22:37.101Z,86.49
2022-09-14T03:23:37.106Z,85.48
2022-09-14T03:24:37.071Z,84.97
2022-09-14T03:25:37.061Z,85.08
2022-09-14T03:26:37.041Z,85.28
2022-09-14T03:27:37.033Z,85.88
2022-09-14T03:28:37.031Z,85.38
2022-09-14T03:29:37.011Z,84.87
2022-09-14T03:30:36.993Z,84.87
2022-09-14T03:31:37.077Z,85.08
2022-09-14T03:32:36.983Z,83.46
2022-09-14T03:33:36.950Z,83.76
2022-09-14T03:34:36.943Z,84.57
2022-09-14T03:35:36.931Z,83.66
2022-09-14T03:36:36.909Z,83.86
2022-09-14T03:37:36.910Z,83.05
2022-09-14T03:38:36.890Z,83.05
2022-09-14T03:39:36.880Z,81.64
2022-09-14T03:40:36.934Z,80.93
2022-09-14T03:41:36.854Z,82.65
2022-09-14T03:42:36.842Z,82.95
2022-09-14T03:43:36.823Z,83.56
2022-09-14T03:44:36.804Z,84.47
2022-09-14T03:45:36.799Z,84.06
2022-09-14T03:46:36.861Z,83.05
2022-09-14T03:47:36.781Z,84.67
2022-09-14T03:48:36.761Z,84.57
2022-09-14T03:49:36.741Z,83.86
2022-09-14T03:50:36.822Z,82.85
2022-09-14T03:51:36.715Z,82.75
2022-09-14T03:52:36.709Z,82.75
2022-09-14T03:53:36.696Z,81.54
2022-09-14T03:54:36.670Z,81.84
2022-09-14T03:55:36.705Z,82.95
2022-09-14T03:56:36.655Z,82.65
2022-09-14T03:57:36.640Z,82.04
2022-09-14T03:58:36.623Z,83.15
2022-09-14T03:59:39.462Z,83.12
2022-09-14T04:00:37.591Z,82.31
2022-09-14T04:01:36.616Z,81.20
2022-09-14T04:02:36.646Z,81.30
2022-09-14T04:03:36.562Z,82.10
2022-09-14T04:04:36.539Z,83.52
2022-09-14T04:05:36.531Z,82.71
2022-09-14T04:06:36.513Z,81.30
2022-09-14T04:07:36.528Z,82.41
2022-09-14T04:08:36.483Z,83.12
2022-09-14T04:09:36.481Z,83.52
2022-09-14T04:10:36.461Z,82.41
2022-09-14T04:11:36.458Z,82.01
2022-09-14T04:12:36.450Z,80.53
2022-09-14T04:13:36.432Z,81.54
2022-09-14T04:14:36.400Z,81.54
2022-09-14T04:15:36.408Z,81.13
2022-09-14T04:16:36.423Z,80.69
2022-09-14T04:17:36.389Z,80.08
2022-09-14T04:18:36.377Z,81.10
2022-09-14T04:19:36.351Z,80.99
2022-09-14T04:20:36.328Z,82.51
2022-09-14T04:21:36.309Z,83.12
2022-09-14T04:22:36.309Z,83.72
2022-09-14T04:23:56.694Z,84.63
2022-09-14T04:24:37.280Z,84.63
2022-09-14T04:25:36.279Z,83.15
2022-09-14T04:26:36.253Z,82.24
2022-09-14T04:27:36.261Z,81.54
2022-09-14T04:28:36.222Z,82.24
2022-09-14T04:29:36.237Z,81.84
2022-09-14T04:30:36.198Z,81.44
2022-09-14T04:31:36.248Z,81.54
2022-09-14T04:32:36.180Z,81.74
2022-09-14T04:33:36.173Z,81.94
2022-09-14T04:34:36.151Z,82.35
2022-09-14T04:35:36.128Z,82.24
2022-09-14T04:36:36.119Z,83.96
2022-09-14T04:37:36.122Z,83.15
2022-09-14T04:38:36.090Z,81.44
2022-09-14T04:39:36.082Z,83.26
2022-09-14T04:40:36.070Z,81.54
2022-09-14T04:41:36.062Z,81.03
2022-09-14T04:42:36.049Z,81.13
2022-09-14T04:43:36.024Z,82.14
2022-09-14T04:44:36.132Z,84.17
2022-09-14T04:45:36.000Z,85.78
2022-09-14T04:46:36.029Z,85.08
2022-09-14T04:47:35.990Z,84.37
2022-09-14T04:48:35.960Z,85.38
2022-09-14T04:49:35.949Z,84.27
2022-09-14T04:50:35.932Z,84.37
2022-09-14T04:51:35.924Z,84.97
2022-09-14T04:52:35.923Z,84.57
2022-09-14T04:53:35.901Z,85.58
2022-09-14T04:54:35.880Z,86.08
2022-09-14T04:55:35.920Z,86.29
2022-09-14T04:56:35.851Z,86.69
2022-09-14T04:57:35.852Z,86.99
2022-09-14T04:58:35.831Z,86.79
2022-09-14T04:59:35.831Z,86.08
2022-09-14T05:00:35.802Z,86.02
2022-09-14T05:01:35.827Z,85.11
2022-09-14T05:02:35.878Z,84.00
2022-09-14T05:03:35.789Z,85.42
2022-09-14T05:04:35.764Z,84.31
2022-09-14T05:05:35.748Z,83.50
2022-09-14T05:06:35.729Z,83.19
2022-09-14T05:07:35.730Z,82.59
2022-09-14T05:08:35.710Z,82.95
2022-09-14T05:09:35.680Z,85.38
2022-09-14T05:10:35.669Z,85.48
2022-09-14T05:11:35.657Z,84.57
2022-09-14T05:12:35.649Z,84.71
2022-09-14T05:13:35.647Z,84.61
2022-09-14T05:14:35.617Z,84.51
2022-09-14T05:15:35.746Z,83.80
2022-09-14T05:16:35.597Z,85.62
2022-09-14T05:17:35.603Z,86.33
2022-09-14T05:18:35.578Z,86.13
2022-09-14T05:19:35.582Z,84.91
2022-09-14T05:20:35.529Z,84.20
2022-09-14T05:21:35.527Z,82.28
2022-09-14T05:22:35.528Z,82.08
2022-09-14T05:23:35.504Z,83.80
2022-09-14T05:24:35.499Z,83.90
2022-09-14T05:25:35.496Z,83.70
2022-09-14T05:26:35.449Z,82.89
2022-09-14T05:27:35.456Z,82.89
2022-09-14T05:28:35.426Z,84.11
2022-09-14T05:29:35.419Z,84.51
2022-09-14T05:30:35.399Z,84.71
2022-09-14T05:31:35.447Z,84.51
2022-09-14T05:32:35.379Z,85.02
2022-09-14T05:33:35.380Z,85.93
2022-09-14T05:34:35.349Z,87.13
2022-09-14T05:35:35.341Z,85.31
2022-09-14T05:36:35.320Z,85.52
2022-09-14T05:37:35.328Z,86.02
2022-09-14T05:38:35.295Z,85.42
2022-09-14T05:39:35.294Z,85.72
2022-09-14T05:40:35.270Z,85.22
2022-09-14T05:41:35.262Z,86.73
2022-09-14T05:42:35.247Z,87.13
2022-09-14T05:43:35.234Z,86.63
2022-09-14T05:44:35.208Z,88.15
2022-09-14T05:45:35.210Z,88.75
2022-09-14T05:46:35.217Z,87.84
2022-09-14T05:47:39.003Z,87.04
2022-09-14T05:48:35.158Z,87.34
2022-09-14T05:49:35.149Z,86.33
2022-09-14T05:50:35.131Z,85.52
2022-09-14T05:51:35.119Z,85.82
2022-09-14T05:52:35.111Z,84.51
2022-09-14T05:53:35.097Z,84.61
2022-09-14T05:54:35.078Z,84.20
2022-09-14T05:55:35.069Z,84.71
2022-09-14T05:56:35.049Z,85.62
2022-09-14T05:57:35.060Z,85.22
2022-09-14T05:58:35.028Z,85.42
2022-09-14T05:59:35.019Z,86.63
2022-09-14T06:00:35.002Z,86.73
2022-09-14T06:01:35.059Z,85.22
2022-09-14T06:02:34.974Z,84.51
2022-09-14T06:03:34.981Z,83.70
2022-09-14T06:04:34.939Z,82.08
2022-09-14T06:05:35.047Z,82.89
2022-09-14T06:06:34.931Z,86.43
2022-09-14T06:07:34.909Z,84.61
2022-09-14T06:08:34.897Z,84.41
2022-09-14T06:09:34.893Z,86.02
2022-09-14T06:10:34.869Z,86.02
2022-09-14T06:11:34.879Z,85.82
2022-09-14T06:12:34.836Z,85.62
2022-09-14T06:13:34.839Z,86.02
2022-09-14T06:14:34.812Z,87.04
2022-09-14T06:15:34.805Z,85.82
2022-09-14T06:16:34.929Z,84.61
2022-09-14T06:17:34.792Z,84.51
2022-09-14T06:18:34.759Z,85.11
2022-09-14T06:19:34.764Z,85.82
2022-09-14T06:20:34.744Z,85.52
2022-09-14T06:21:34.730Z,85.62
2022-09-14T06:22:34.713Z,84.51
2022-09-14T06:23:34.690Z,84.91
2022-09-14T06:24:34.681Z,86.83
2022-09-14T06:25:34.671Z,88.04
2022-09-14T06:26:34.662Z,88.96
2022-09-14T06:27:34.650Z,88.85
2022-09-14T06:28:34.756Z,88.96
2022-09-14T06:29:34.620Z,88.45
2022-09-14T06:30:34.615Z,88.90
2022-09-14T06:31:34.603Z,89.36
2022-09-14T06:32:34.569Z,88.90
2022-09-14T06:33:34.566Z,89.06
2022-09-14T06:34:34.549Z,89.50
2022-09-14T06:35:34.541Z,89.00
2022-09-14T06:36:34.548Z,90.01
2022-09-14T06:37:34.509Z,89.10
2022-09-14T06:38:34.492Z,88.90
2022-09-14T06:39:34.527Z,89.46
2022-09-14T06:40:34.579Z,88.59
2022-09-14T06:41:34.468Z,87.79
2022-09-14T06:42:34.441Z,87.24
2022-09-14T06:43:34.430Z,86.63
2022-09-14T06:44:34.414Z,85.52
2022-09-14T06:45:34.412Z,84.41
2022-09-14T06:46:34.401Z,83.70
2022-09-14T06:47:34.408Z,83.60
2022-09-14T06:48:34.373Z,83.70
2022-09-14T06:49:34.354Z,83.60
2022-09-14T06:50:34.343Z,83.19
2022-09-14T06:51:34.342Z,82.79
2022-09-14T06:52:34.313Z,82.99
2022-09-14T06:53:34.298Z,83.19
2022-09-14T06:54:34.298Z,83.40
2022-09-14T06:55:34.277Z,82.39
2022-09-14T06:56:34.268Z,81.57
2022-09-14T06:57:34.253Z,82.28
2022-09-14T06:58:34.231Z,82.99
2022-09-14T06:59:34.219Z,81.78
2022-09-14T07:00:34.202Z,82.49
2022-09-14T07:01:34.208Z,82.69
2022-09-14T07:02:34.214Z,82.08
2022-09-14T07:03:34.165Z,82.69
2022-09-14T07:04:34.149Z,83.50
2022-09-14T07:05:34.147Z,84.71
2022-09-14T07:06:34.142Z,85.11
2022-09-14T07:07:34.111Z,86.93
2022-09-14T07:08:34.089Z,86.33
2022-09-14T07:09:34.096Z,85.93
2022-09-14T07:10:34.073Z,86.73
2022-09-14T07:11:34.081Z,87.95
2022-09-14T07:12:34.044Z,88.15
2022-09-14T07:13:34.031Z,87.34
2022-09-14T07:14:34.009Z,86.93
2022-09-14T07:15:34.012Z,86.43
2022-09-14T07:16:34.005Z,86.83
2022-09-14T07:17:33.983Z,86.22
2022-09-14T07:18:33.960Z,87.30
2022-09-14T07:19:33.962Z,87.60
2022-09-14T07:20:33.944Z,87.10
2022-09-14T07:21:33.946Z,86.99
2022-09-14T07:22:33.918Z,85.48
2022-09-14T07:23:33.938Z,83.56
2022-09-14T07:24:33.890Z,81.54
2022-09-14T07:25:33.880Z,82.45
2022-09-14T07:26:33.877Z,83.26
2022-09-14T07:27:33.851Z,84.47
2022-09-14T07:28:33.829Z,82.85
2022-09-14T07:29:33.821Z,81.84
2022-09-14T07:30:33.835Z,83.15
2022-09-14T07:31:33.800Z,84.06
2022-09-14T07:32:33.780Z,83.36
2022-09-14T07:33:33.769Z,82.75
2022-09-14T07:34:33.751Z,82.24
2022-09-14T07:35:33.750Z,82.31
2022-09-14T07:36:34.980Z,83.01
2022-09-14T07:37:33.709Z,83.62
2022-09-14T07:38:51.120Z,86.25
2022-09-14T07:39:34.719Z,84.93
2022-09-14T07:40:33.745Z,83.92
2022-09-14T07:41:33.677Z,83.72
2022-09-14T07:42:33.654Z,83.32
2022-09-14T07:43:33.630Z,85.44
2022-09-14T07:44:33.622Z,85.84
2022-09-14T07:45:33.641Z,85.24
2022-09-14T07:46:33.610Z,84.93
2022-09-14T07:47:33.579Z,84.33
2022-09-14T07:48:33.565Z,84.03
2022-09-14T07:49:33.550Z,83.72
2022-09-14T07:50:33.540Z,84.23
2022-09-14T07:51:33.543Z,81.70
2022-09-14T07:52:38.006Z,82.61
2022-09-14T07:53:34.512Z,82.51
2022-09-14T07:54:33.494Z,82.41
2022-09-14T07:55:33.470Z,82.01
2022-09-14T07:56:33.491Z,83.01
2022-09-14T07:57:54.732Z,82.57
2022-09-14T07:58:34.428Z,84.29
2022-09-14T07:59:36.476Z,85.10
2022-09-14T08:00:33.411Z,84.79
2022-09-14T08:01:33.471Z,85.50
2022-09-14T08:02:33.432Z,82.98
2022-09-14T08:03:33.371Z,83.18
2022-09-14T08:04:33.353Z,82.87
2022-09-14T08:05:33.330Z,82.67
2022-09-14T08:06:33.332Z,83.78
2022-09-14T08:07:33.322Z,85.10
2022-09-14T08:08:33.306Z,86.21
2022-09-14T08:09:33.286Z,85.90
2022-09-14T08:10:33.278Z,86.00
2022-09-14T08:11:33.276Z,86.30
2022-09-14T08:12:33.252Z,85.19
2022-09-14T08:13:33.242Z,83.78
2022-09-14T08:14:33.223Z,82.57
2022-09-14T08:15:33.204Z,82.98
2022-09-14T08:16:33.266Z,83.38
2022-09-14T08:17:33.180Z,82.78
2022-09-14T08:18:33.173Z,82.87
2022-09-14T08:19:33.151Z,82.98
2022-09-14T08:20:33.143Z,82.98
2022-09-14T08:21:33.141Z,82.98
2022-09-14T08:22:33.115Z,82.07
2022-09-14T08:23:33.102Z,80.15
2022-09-14T08:24:33.091Z,81.87
2022-09-14T08:25:33.070Z,80.65
2022-09-14T08:26:33.070Z,80.85
2022-09-14T08:27:33.044Z,82.78
2022-09-14T08:28:33.039Z,82.78
2022-09-14T08:29:33.024Z,81.16
2022-09-14T08:30:33.008Z,80.85
2022-09-14T08:31:33.042Z,81.36
2022-09-14T08:32:32.984Z,83.07
2022-09-14T08:33:32.970Z,84.49
2022-09-14T08:34:32.960Z,84.79
2022-09-14T08:35:56.439Z,85.50
2022-09-14T08:36:33.941Z,84.99
2022-09-14T08:37:32.912Z,85.30
2022-09-14T08:38:32.904Z,85.60
2022-09-14T08:39:32.895Z,85.10
2022-09-14T08:40:32.944Z,84.79
2022-09-14T08:41:32.867Z,83.28
2022-09-14T08:42:32.856Z,82.43
2022-09-14T08:43:32.834Z,81.73
2022-09-14T08:44:32.820Z,81.73
2022-09-14T08:45:32.848Z,81.93
2022-09-14T08:46:32.810Z,81.42
2022-09-14T08:47:32.782Z,82.13
2022-09-14T08:48:32.771Z,81.28
2022-09-14T08:49:32.757Z,79.57
2022-09-14T08:50:36.916Z,80.07
2022-09-14T08:51:33.757Z,80.58
2022-09-14T08:52:32.719Z,79.77
2022-09-14T08:53:32.702Z,80.78
2022-09-14T08:54:32.690Z,80.88
2022-09-14T08:55:32.671Z,79.47
2022-09-14T08:56:32.694Z,78.46
2022-09-14T08:57:32.640Z,77.95
2022-09-14T08:58:32.640Z,77.86
2022-09-14T08:59:32.612Z,78.26
2022-09-14T09:00:32.660Z,79.16
2022-09-14T09:01:32.599Z,80.18
2022-09-14T09:02:32.580Z,80.88
2022-09-14T09:03:32.650Z,81.18
2022-09-14T09:04:32.551Z,80.38
2022-09-14T09:05:32.546Z,81.18
2022-09-14T09:06:32.536Z,79.77
2022-09-14T09:07:32.510Z,79.57
2022-09-14T09:08:32.502Z,79.03
2022-09-14T09:09:32.495Z,79.93
2022-09-14T09:10:32.482Z,79.93
2022-09-14T09:11:32.454Z,79.33
2022-09-14T09:12:32.451Z,79.93
2022-09-14T09:13:32.419Z,79.93
2022-09-14T09:14:32.426Z,79.83
2022-09-14T09:15:32.422Z,79.13
2022-09-14T09:16:32.457Z,80.33
2022-09-14T09:17:32.374Z,80.54
2022-09-14T09:18:32.369Z,80.30
2022-09-14T09:19:32.348Z,80.30
2022-09-14T09:20:32.350Z,80.20
2022-09-14T09:21:32.312Z,80.20
2022-09-14T09:22:32.302Z,80.10
2022-09-14T09:23:32.302Z,79.90
2022-09-14T09:24:36.375Z,78.69
2022-09-14T09:25:32.281Z,78.96
2022-09-14T09:26:32.256Z,78.45
2022-09-14T09:27:32.248Z,78.65
2022-09-14T09:28:32.231Z,78.55
2022-09-14T09:29:32.211Z,77.34
2022-09-14T09:30:32.218Z,77.44
2022-09-14T09:31:32.234Z,76.94
2022-09-14T09:32:32.173Z,77.84
2022-09-14T09:33:32.158Z,77.34
2022-09-14T09:34:32.162Z,78.96
2022-09-14T09:35:32.162Z,76.74
2022-09-14T09:36:32.123Z,77.04
2022-09-14T09:37:32.111Z,77.24
2022-09-14T09:38:32.094Z,76.43
2022-09-14T09:39:32.093Z,76.64
2022-09-14T09:40:32.141Z,77.04
2022-09-14T09:41:32.041Z,76.84
2022-09-14T09:42:32.032Z,76.34
2022-09-14T09:43:48.973Z,76.84
2022-09-14T09:44:33.011Z,77.04
2022-09-14T09:45:32.010Z,78.55
2022-09-14T09:46:32.021Z,77.95
2022-09-14T09:47:31.969Z,77.75
2022-09-14T09:48:31.961Z,77.64
2022-09-14T09:49:31.956Z,76.43
2022-09-14T09:50:31.964Z,76.43
2022-09-14T09:51:31.935Z,76.54
2022-09-14T09:52:33.161Z,77.04
2022-09-14T09:53:31.882Z,76.03
2022-09-14T09:54:31.870Z,75.73
2022-09-14T09:55:31.870Z,75.13
2022-09-14T09:56:31.859Z,76.34
2022-09-14T09:57:31.831Z,77.04
2022-09-14T09:58:31.821Z,75.53
2022-09-14T09:59:31.805Z,75.83
2022-09-14T10:00:31.811Z,76.64
2022-09-14T10:01:31.938Z,77.20
2022-09-14T10:02:31.850Z,76.54
2022-09-14T10:03:31.749Z,76.03
2022-09-14T10:04:31.743Z,77.24
2022-09-14T10:05:31.732Z,77.55
2022-09-14T10:06:31.713Z,78.05
2022-09-14T10:07:31.691Z,78.71
2022-09-14T10:08:31.683Z,78.51
2022-09-14T10:09:31.672Z,77.11
2022-09-14T10:10:31.672Z,78.55
2022-09-14T10:11:31.641Z,76.94
2022-09-14T10:12:31.631Z,77.64
2022-09-14T10:13:35.357Z,77.24
2022-09-14T10:14:32.625Z,77.84
2022-09-14T10:15:31.598Z,79.32
2022-09-14T10:16:31.628Z,77.70
2022-09-14T10:17:31.566Z,77.31
2022-09-14T10:18:31.542Z,77.61
2022-09-14T10:19:31.549Z,76.90
2022-09-14T10:20:31.526Z,75.99
2022-09-14T10:21:31.510Z,76.10
2022-09-14T10:22:31.495Z,76.30
2022-09-14T10:23:31.488Z,76.40
2022-09-14T10:24:31.488Z,78.01
2022-09-14T10:25:31.453Z,78.21
2022-09-14T10:26:31.443Z,77.61
2022-09-14T10:27:34.395Z,78.01
2022-09-14T10:28:32.416Z,76.60
2022-09-14T10:29:31.409Z,78.17
2022-09-14T10:30:31.381Z,78.58
2022-09-14T10:31:31.459Z,78.38
2022-09-14T10:32:31.362Z,78.07
2022-09-14T10:33:31.411Z,77.47
2022-09-14T10:34:31.351Z,76.87
2022-09-14T10:35:31.312Z,77.13
2022-09-14T10:36:31.316Z,76.53
2022-09-14T10:37:31.289Z,75.52
2022-09-14T10:38:31.279Z,74.11
2022-09-14T10:39:31.272Z,74.72
2022-09-14T10:40:31.309Z,75.92
2022-09-14T10:41:31.231Z,79.24
2022-09-14T10:42:31.221Z,79.24
2022-09-14T10:43:31.211Z,79.14
2022-09-14T10:44:31.211Z,76.43
2022-09-14T10:45:31.181Z,76.43
2022-09-14T10:46:31.265Z,76.93
2022-09-14T10:47:31.162Z,76.93
2022-09-14T10:48:31.142Z,76.12
2022-09-14T10:49:31.144Z,76.93
2022-09-14T10:50:31.112Z,76.83
2022-09-14T10:51:31.102Z,77.23
2022-09-14T10:52:31.090Z,77.33
2022-09-14T10:53:31.194Z,77.23
2022-09-14T10:54:31.089Z,78.14
2022-09-14T10:55:31.054Z,78.34
2022-09-14T10:56:31.041Z,77.63
2022-09-14T10:57:31.030Z,77.63
2022-09-14T10:58:31.013Z,77.73
2022-09-14T10:59:31.014Z,77.63
2022-09-14T11:00:30.990Z,78.14
2022-09-14T11:01:30.994Z,77.33
2022-09-14T11:02:31.066Z,78.44
2022-09-14T11:03:30.942Z,78.74
2022-09-14T11:04:30.943Z,77.63
2022-09-14T11:05:30.918Z,77.43
2022-09-14T11:06:30.931Z,78.17
2022-09-14T11:07:30.893Z,77.27
2022-09-14T11:08:30.882Z,77.67
2022-09-14T11:09:30.872Z,77.97
2022-09-14T11:10:30.864Z,78.81
2022-09-14T11:11:30.838Z,79.42
2022-09-14T11:12:30.830Z,79.42
2022-09-14T11:13:30.800Z,79.72
2022-09-14T11:14:30.811Z,79.92
2022-09-14T11:15:30.853Z,80.02
2022-09-14T11:16:30.837Z,80.02
2022-09-14T11:17:30.751Z,80.22
2022-09-14T11:18:30.756Z,80.43
2022-09-14T11:19:30.737Z,80.93
2022-09-14T11:20:30.711Z,80.83
2022-09-14T11:21:30.700Z,81.73
2022-09-14T11:22:30.705Z,81.13
2022-09-14T11:23:30.671Z,80.63
2022-09-14T11:24:30.673Z,81.03
2022-09-14T11:25:30.641Z,80.63
2022-09-14T11:26:30.647Z,81.23
2022-09-14T11:27:30.618Z,80.93
2022-09-14T11:28:30.613Z,79.92
2022-09-14T11:29:30.603Z,80.73
2022-09-14T11:30:30.580Z,81.23
2022-09-14T11:31:30.607Z,81.84
2022-09-14T11:32:30.552Z,81.37
2022-09-14T11:33:31.514Z,81.47
2022-09-14T11:34:30.539Z,82.58
2022-09-14T11:35:30.510Z,82.28
2022-09-14T11:36:30.505Z,81.57
2022-09-14T11:37:30.486Z,79.25
2022-09-14T11:38:30.482Z,79.86
2022-09-14T11:39:30.472Z,80.06
2022-09-14T11:40:30.549Z,79.66
2022-09-14T11:41:30.441Z,81.37
2022-09-14T11:42:30.429Z,80.36
2022-09-14T11:43:30.413Z,80.46
2022-09-14T11:44:30.401Z,81.67
2022-09-14T11:45:30.373Z,81.87
2022-09-14T11:46:30.422Z,81.27
2022-09-14T11:47:30.350Z,82.07
2022-09-14T11:48:45.660Z,82.48
2022-09-14T11:49:31.340Z,83.18
2022-09-14T11:50:30.331Z,82.88
2022-09-14T11:51:30.303Z,81.98
2022-09-14T11:52:30.327Z,81.77
2022-09-14T11:53:30.271Z,82.44
2022-09-14T11:54:30.273Z,82.14
2022-09-14T11:55:30.248Z,81.03
2022-09-14T11:56:30.224Z,80.73
2022-09-14T11:57:30.223Z,81.33
2022-09-14T11:58:30.222Z,80.32
2022-09-14T11:59:30.276Z,80.73
2022-09-14T12:00:30.171Z,80.43
2022-09-14T12:01:30.173Z,79.11
2022-09-14T12:02:30.225Z,78.51
2022-09-14T12:03:30.183Z,79.28
2022-09-14T12:04:30.132Z,79.79
2022-09-14T12:05:30.115Z,79.58
2022-09-14T12:06:30.114Z,80.69
2022-09-14T12:07:30.081Z,80.79
2022-09-14T12:08:30.079Z,81.19
2022-09-14T12:09:30.051Z,81.03
2022-09-14T12:10:30.036Z,80.83
2022-09-14T12:11:30.037Z,80.32
2022-09-14T12:12:30.013Z,80.93
2022-09-14T12:13:30.013Z,81.23
2022-09-14T12:14:29.981Z,81.63
2022-09-14T12:15:30.013Z,80.52
2022-09-14T12:16:34.364Z,80.83
2022-09-14T12:17:45.179Z,80.63
2022-09-14T12:18:30.940Z,81.33
2022-09-14T12:19:29.926Z,80.93
2022-09-14T12:20:29.903Z,81.33
2022-09-14T12:21:29.890Z,81.63
2022-09-14T12:22:29.883Z,82.24
2022-09-14T12:23:29.893Z,80.73
2022-09-14T12:24:29.853Z,79.11
2022-09-14T12:25:29.841Z,78.71
2022-09-14T12:26:29.825Z,79.92
2022-09-14T12:27:29.815Z,80.83
2022-09-14T12:28:29.806Z,80.02
2022-09-14T12:29:29.790Z,80.02
2022-09-14T12:30:29.763Z,79.32
2022-09-14T12:31:29.806Z,79.72
2022-09-14T12:32:29.759Z,80.22
2022-09-14T12:33:29.751Z,80.32
2022-09-14T12:34:29.712Z,81.43
2022-09-14T12:35:29.703Z,82.14
2022-09-14T12:36:29.681Z,82.64
2022-09-14T12:37:29.677Z,81.93
2022-09-14T12:38:29.688Z,82.64
2022-09-14T12:39:29.651Z,82.38
2022-09-14T12:40:29.707Z,82.28
2022-09-14T12:41:29.633Z,79.96
2022-09-14T12:42:29.600Z,79.86
2022-09-14T12:43:29.614Z,81.27
2022-09-14T12:44:29.585Z,80.66
2022-09-14T12:45:29.562Z,81.47
2022-09-14T12:46:29.596Z,80.87
2022-09-14T12:47:29.544Z,79.96
2022-09-14T12:48:29.531Z,80.26
2022-09-14T12:49:29.512Z,80.36
2022-09-14T12:50:29.493Z,78.96
2022-09-14T12:51:29.487Z,78.75
2022-09-14T12:52:29.471Z,80.12